createdAt,value
2023-04-29T00:00:36.224Z,78.7863
2023-04-29T00:01:44.294Z,78.7739
2023-04-29T00:02:52.534Z,78.7449
2023-04-29T00:04:00.348Z,78.7465
2023-04-29T00:05:08.580Z,78.7525
2023-04-29T00:06:16.454Z,78.7720
2023-04-29T00:07:24.547Z,78.7876
2023-04-29T00:08:32.610Z,78.7943
2023-04-29T00:09:40.616Z,78.8183
2023-04-29T00:10:48.892Z,78.8117
2023-04-29T00:11:56.739Z,78.8092
2023-04-29T00:13:04.764Z,78.8063
2023-04-29T00:14:12.833Z,78.8077
2023-04-29T00:15:20.897Z,78.8111
2023-04-29T00:16:29.034Z,78.8543
2023-04-29T00:17:37.045Z,78.8954
2023-04-29T00:18:44.930Z,78.9148
2023-04-29T00:19:53.203Z,78.9341
2023-04-29T00:21:01.024Z,78.9470
2023-04-29T00:22:09.241Z,78.9406
2023-04-29T00:23:17.282Z,78.9323
2023-04-29T00:24:25.341Z,78.9447
2023-04-29T00:25:33.353Z,78.9421
2023-04-29T00:26:41.759Z,78.9541
2023-04-29T00:27:49.550Z,78.9834
2023-04-29T00:28:57.659Z,79.0056
2023-04-29T00:30:05.606Z,79.0144
2023-04-29T00:31:13.699Z,79.0102
2023-04-29T00:32:21.802Z,78.9930
2023-04-29T00:33:29.656Z,78.9830
2023-04-29T00:34:37.634Z,78.9646
2023-04-29T00:35:45.687Z,78.9342
2023-04-29T00:36:53.894Z,78.9014
2023-04-29T00:38:01.974Z,78.8879
2023-04-29T00:39:10.027Z,78.8724
2023-04-29T00:40:18.062Z,78.8644
2023-04-29T00:41:26.284Z,78.8608
2023-04-29T00:42:34.295Z,78.8771
2023-04-29T00:43:42.286Z,78.8674
2023-04-29T00:44:50.341Z,78.8620
2023-04-29T00:45:58.465Z,78.8636
2023-04-29T00:47:06.350Z,78.8777
2023-04-29T00:48:14.292Z,78.8853
2023-04-29T00:49:22.328Z,78.8972
2023-04-29T00:50:30.439Z,78.9128
2023-04-29T00:51:38.601Z,78.9084
2023-04-29T00:52:46.621Z,78.9029
2023-04-29T00:53:54.649Z,78.8792
2023-04-29T00:55:02.752Z,78.8707
2023-04-29T00:56:10.807Z,78.8536
2023-04-29T00:57:18.784Z,78.8543
2023-04-29T00:58:27.099Z,78.8441
2023-04-29T00:59:34.892Z,78.8246
2023-04-29T01:00:42.950Z,78.8309
2023-04-29T01:01:51.129Z,78.8251
2023-04-29T01:02:58.966Z,78.8377
2023-04-29T01:04:07.139Z,78.8481
2023-04-29T01:05:15.047Z,78.8219
2023-04-29T01:06:23.180Z,78.7859
2023-04-29T01:07:31.316Z,78.7720
2023-04-29T01:08:39.308Z,78.7563
2023-04-29T01:09:47.369Z,78.7365
2023-04-29T01:10:55.413Z,78.7423
2023-04-29T01:12:03.464Z,78.7506
2023-04-29T01:13:11.628Z,78.7423
2023-04-29T01:14:19.534Z,78.7343
2023-04-29T01:15:27.703Z,78.7444
2023-04-29T01:16:35.757Z,78.7408
2023-04-29T01:17:43.561Z,78.7379
2023-04-29T01:18:51.682Z,78.7250
2023-04-29T01:19:59.759Z,78.7222
2023-04-29T01:21:07.911Z,78.7318
2023-04-29T01:22:15.901Z,78.7409
2023-04-29T01:23:23.982Z,78.7547
2023-04-29T01:24:32.103Z,78.7653
2023-04-29T01:25:40.089Z,78.7755
2023-04-29T01:26:48.119Z,78.7718
2023-04-29T01:27:56.375Z,78.7629
2023-04-29T01:29:04.206Z,78.7576
2023-04-29T01:30:12.310Z,78.7628
2023-04-29T01:31:20.414Z,78.7747
2023-04-29T01:32:28.240Z,78.7882
2023-04-29T01:33:36.252Z,78.8036
2023-04-29T01:34:44.343Z,78.8137
2023-04-29T01:35:52.543Z,78.8350
2023-04-29T01:37:00.556Z,78.8652
2023-04-29T01:38:08.725Z,78.8750
2023-04-29T01:39:16.668Z,78.8754
2023-04-29T01:40:24.713Z,78.8614
2023-04-29T01:41:32.807Z,78.8585
2023-04-29T01:42:40.839Z,78.8629
2023-04-29T01:43:48.857Z,78.8444
2023-04-29T01:44:57.007Z,78.8228
2023-04-29T01:46:04.973Z,78.7878
2023-04-29T01:47:12.931Z,78.7577
2023-04-29T01:48:20.923Z,78.7275
2023-04-29T01:49:28.993Z,78.6974
2023-04-29T01:50:37.210Z,78.6523
2023-04-29T01:51:45.206Z,78.6430
2023-04-29T01:52:53.306Z,78.6434
2023-04-29T01:54:01.377Z,78.6543
2023-04-29T01:55:09.338Z,78.6538
2023-04-29T01:56:17.395Z,78.6703
2023-04-29T01:57:25.507Z,78.7062
2023-04-29T01:58:33.555Z,78.7360
2023-04-29T01:59:41.666Z,78.7538
2023-04-29T02:00:49.680Z,78.7793
2023-04-29T02:01:57.495Z,78.7986
2023-04-29T02:03:05.666Z,78.8095
2023-04-29T02:04:13.681Z,78.8052
2023-04-29T02:05:22.133Z,78.7893
2023-04-29T02:06:29.867Z,78.7692
2023-04-29T02:07:37.904Z,78.7470
2023-04-29T02:08:45.978Z,78.7260
2023-04-29T02:09:54.313Z,78.6994
2023-04-29T02:11:02.145Z,78.6646
2023-04-29T02:12:10.179Z,78.6196
2023-04-29T02:13:18.254Z,78.6105
2023-04-29T02:14:26.546Z,78.6098
2023-04-29T02:15:34.384Z,78.5867
2023-04-29T02:16:42.335Z,78.5747
2023-04-29T02:17:50.372Z,78.5608
2023-04-29T02:18:58.374Z,78.5565
2023-04-29T02:20:06.568Z,78.5483
2023-04-29T02:21:14.827Z,78.5347
2023-04-29T02:22:22.663Z,78.5198
2023-04-29T02:23:30.682Z,78.4973
2023-04-29T02:24:38.739Z,78.4707
2023-04-29T02:25:46.912Z,78.4386
2023-04-29T02:26:54.898Z,78.4108
2023-04-29T02:28:03.061Z,78.3792
2023-04-29T02:29:11.001Z,78.3678
2023-04-29T02:30:19.006Z,78.3503
2023-04-29T02:31:27.006Z,78.3344
2023-04-29T02:32:35.045Z,78.3167
2023-04-29T02:33:43.070Z,78.2968
2023-04-29T02:34:51.266Z,78.2865
2023-04-29T02:35:59.275Z,78.2671
2023-04-29T02:37:07.457Z,78.2434
2023-04-29T02:38:15.500Z,78.2158
2023-04-29T02:39:23.428Z,78.2091
2023-04-29T02:40:31.479Z,78.2217
2023-04-29T02:41:39.594Z,78.2305
2023-04-29T02:42:47.612Z,78.2410
2023-04-29T02:43:55.823Z,78.2391
2023-04-29T02:45:03.726Z,78.2413
2023-04-29T02:46:11.717Z,78.2549
2023-04-29T02:47:19.634Z,78.2996
2023-04-29T02:48:27.678Z,78.3553
2023-04-29T02:49:35.937Z,78.3727
2023-04-29T02:50:43.932Z,78.3969
2023-04-29T02:51:51.992Z,78.4314
2023-04-29T02:53:00.131Z,78.4614
2023-04-29T02:54:08.114Z,78.5436
2023-04-29T02:55:16.172Z,78.6270
2023-04-29T02:56:24.167Z,78.7226
2023-04-29T02:57:32.273Z,78.7900
2023-04-29T02:58:40.291Z,78.8277
2023-04-29T02:59:48.342Z,78.8742
2023-04-29T03:00:56.323Z,78.9139
2023-04-29T03:02:04.356Z,78.9345
2023-04-29T03:03:12.452Z,78.9534
2023-04-29T03:04:20.662Z,78.9356
2023-04-29T03:05:28.565Z,78.9372
2023-04-29T03:06:36.669Z,78.9392
2023-04-29T03:07:44.715Z,78.9278
2023-04-29T03:08:52.718Z,78.9229
2023-04-29T03:10:00.739Z,78.9492
2023-04-29T03:11:08.868Z,78.9674
2023-04-29T03:12:16.919Z,78.9977
2023-04-29T03:13:24.923Z,79.0469
2023-04-29T03:14:32.945Z,79.0803
2023-04-29T03:15:40.873Z,79.1097
2023-04-29T03:16:48.990Z,79.1430
2023-04-29T03:17:57.042Z,79.2045
2023-04-29T03:19:05.132Z,79.2498
2023-04-29T03:20:13.220Z,79.2707
2023-04-29T03:21:21.237Z,79.2814
2023-04-29T03:22:29.315Z,79.2997
2023-04-29T03:23:37.409Z,79.3038
2023-04-29T03:24:45.396Z,79.3041
2023-04-29T03:25:53.478Z,79.2900
2023-04-29T03:27:01.517Z,79.2732
2023-04-29T03:28:09.539Z,79.2586
2023-04-29T03:29:17.633Z,79.2504
2023-04-29T03:30:25.491Z,79.2366
2023-04-29T03:31:33.605Z,79.2099
2023-04-29T03:32:41.678Z,79.1867
2023-04-29T03:33:49.957Z,79.1685
2023-04-29T03:34:57.873Z,79.1656
2023-04-29T03:36:05.907Z,79.1410
2023-04-29T03:37:13.956Z,79.1168
2023-04-29T03:38:21.996Z,79.1270
2023-04-29T03:39:30.029Z,79.1315
2023-04-29T03:40:38.198Z,79.1239
2023-04-29T03:41:46.113Z,79.1329
2023-04-29T03:42:54.157Z,79.1329
2023-04-29T03:44:02.246Z,79.1154
2023-04-29T03:45:10.160Z,79.1087
2023-04-29T03:46:18.241Z,79.0974
2023-04-29T03:47:26.294Z,79.0742
2023-04-29T03:48:34.430Z,79.0454
2023-04-29T03:49:42.487Z,79.0423
2023-04-29T03:50:50.518Z,79.0230
2023-04-29T03:51:58.631Z,79.0186
2023-04-29T03:53:06.626Z,79.0122
2023-04-29T03:54:14.861Z,78.9908
2023-04-29T03:55:22.840Z,78.9720
2023-04-29T03:56:30.818Z,78.9661
2023-04-29T03:57:41.607Z,78.9626
2023-04-29T03:58:51.629Z,78.9654
2023-04-29T03:59:59.673Z,78.9567
2023-04-29T04:01:07.740Z,78.9529
2023-04-29T04:02:16.136Z,78.9559
2023-04-29T04:03:24.032Z,78.9913
2023-04-29T04:04:32.346Z,79.0550
2023-04-29T04:05:40.064Z,79.0693
2023-04-29T04:06:48.094Z,79.0942
2023-04-29T04:07:56.194Z,79.0907
2023-04-29T04:09:04.200Z,79.0928
2023-04-29T04:10:12.309Z,79.0929
2023-04-29T04:11:20.322Z,79.1132
2023-04-29T04:12:28.518Z,79.1228
2023-04-29T04:13:36.293Z,79.1583
2023-04-29T04:14:44.339Z,79.1740
2023-04-29T04:15:52.573Z,79.1710
2023-04-29T04:17:00.578Z,79.1690
2023-04-29T04:18:08.691Z,79.1484
2023-04-29T04:19:16.634Z,79.1527
2023-04-29T04:20:24.854Z,79.1596
2023-04-29T04:21:32.776Z,79.1709
2023-04-29T04:22:40.840Z,79.2046
2023-04-29T04:23:48.849Z,79.2287
2023-04-29T04:24:56.939Z,79.2315
2023-04-29T04:26:05.049Z,79.2225
2023-04-29T04:27:12.970Z,79.2053
2023-04-29T04:28:20.958Z,79.1843
2023-04-29T04:29:28.997Z,79.1555
2023-04-29T04:30:37.067Z,79.1274
2023-04-29T04:31:47.002Z,79.0657
2023-04-29T04:32:58.126Z,79.0265
2023-04-29T04:34:06.193Z,79.0033
2023-04-29T04:35:14.247Z,78.9699
2023-04-29T04:36:22.442Z,78.9610
2023-04-29T04:37:30.365Z,78.9488
2023-04-29T04:38:38.418Z,78.9092
2023-04-29T04:39:46.408Z,78.8884
2023-04-29T04:40:54.496Z,78.8766
2023-04-29T04:42:02.419Z,78.8587
2023-04-29T04:43:10.507Z,78.8557
2023-04-29T04:44:18.626Z,78.8284
2023-04-29T04:45:26.869Z,78.8087
2023-04-29T04:46:34.687Z,78.8086
2023-04-29T04:47:42.838Z,78.8219
2023-04-29T04:48:50.909Z,78.8531
2023-04-29T04:49:58.895Z,78.8812
2023-04-29T04:51:07.010Z,78.9459
2023-04-29T04:52:14.984Z,79.0106
2023-04-29T04:53:23.032Z,79.0861
2023-04-29T04:54:31.144Z,79.1629
2023-04-29T04:55:39.186Z,79.2244
2023-04-29T04:56:47.071Z,79.2597
2023-04-29T04:57:55.133Z,79.2878
2023-04-29T04:59:03.179Z,79.3008
2023-04-29T05:00:11.411Z,79.3266
2023-04-29T05:01:19.625Z,79.3513
2023-04-29T05:02:27.558Z,79.3511
2023-04-29T05:03:35.627Z,79.3383
2023-04-29T05:04:43.517Z,79.3787
2023-04-29T05:05:51.589Z,79.3630
2023-04-29T05:06:59.692Z,79.3515
2023-04-29T05:08:07.888Z,79.3866
2023-04-29T05:09:15.690Z,79.3961
2023-04-29T05:10:23.818Z,79.3935
2023-04-29T05:11:31.764Z,79.4127
2023-04-29T05:12:39.781Z,79.4029
2023-04-29T05:13:47.841Z,79.3758
2023-04-29T05:14:56.031Z,79.3321
2023-04-29T05:16:06.242Z,79.3494
2023-04-29T05:17:17.139Z,79.3573
2023-04-29T05:18:24.985Z,79.3249
2023-04-29T05:19:33.040Z,79.2865
2023-04-29T05:20:41.134Z,79.2696
2023-04-29T05:21:49.119Z,79.2551
2023-04-29T05:22:57.252Z,79.2556
2023-04-29T05:24:05.271Z,79.2546
2023-04-29T05:25:13.180Z,79.2312
2023-04-29T05:26:21.217Z,79.2073
2023-04-29T05:27:29.301Z,79.2154
2023-04-29T05:28:37.552Z,79.2123
2023-04-29T05:29:45.487Z,79.1882
2023-04-29T05:30:53.535Z,79.1489
2023-04-29T05:32:01.643Z,79.0943
2023-04-29T05:33:09.661Z,79.0133
2023-04-29T05:34:17.778Z,78.9490
2023-04-29T05:35:25.741Z,78.9119
2023-04-29T05:36:33.822Z,78.8497
2023-04-29T05:37:41.818Z,78.7907
2023-04-29T05:38:49.893Z,78.7149
2023-04-29T05:39:57.840Z,78.6498
2023-04-29T05:41:05.855Z,78.5957
2023-04-29T05:42:13.924Z,78.5538
2023-04-29T05:43:22.156Z,78.5408
2023-04-29T05:44:30.105Z,78.5577
2023-04-29T05:45:38.230Z,78.5802
2023-04-29T05:46:46.238Z,78.6060
2023-04-29T05:47:54.319Z,78.6234
2023-04-29T05:49:02.360Z,78.6219
2023-04-29T05:50:10.413Z,78.6172
2023-04-29T05:51:18.446Z,78.6055
2023-04-29T05:52:26.455Z,78.6097
2023-04-29T05:53:34.517Z,78.6068
2023-04-29T05:54:42.471Z,78.6186
2023-04-29T05:55:51.390Z,78.6267
2023-04-29T05:56:58.626Z,78.6389
2023-04-29T05:58:06.769Z,78.6216
2023-04-29T05:59:14.897Z,78.6227
2023-04-29T06:00:22.788Z,78.6313
2023-04-29T06:01:30.945Z,78.6119
2023-04-29T06:02:44.305Z,78.5806
2023-04-29T06:03:52.122Z,78.5222
2023-04-29T06:05:00.248Z,78.3941
2023-04-29T06:06:07.999Z,78.2659
2023-04-29T06:07:17.796Z,78.1430
2023-04-29T06:08:28.849Z,78.0505
2023-04-29T06:09:36.868Z,77.9604
2023-04-29T06:10:44.920Z,77.8945
2023-04-29T06:11:53.037Z,77.8288
2023-04-29T06:13:01.147Z,77.7528
2023-04-29T06:14:09.170Z,77.6800
2023-04-29T06:15:17.320Z,77.6012
2023-04-29T06:16:25.352Z,77.5196
2023-04-29T06:17:33.338Z,77.4348
2023-04-29T06:18:41.383Z,77.3162
2023-04-29T06:19:49.542Z,77.1990
2023-04-29T06:20:57.533Z,77.0942
2023-04-29T06:22:05.618Z,77.0261
2023-04-29T06:23:13.564Z,76.9721
2023-04-29T06:24:21.622Z,76.9228
2023-04-29T06:25:29.655Z,76.8487
2023-04-29T06:26:37.792Z,76.7897
2023-04-29T06:27:45.871Z,76.7240
2023-04-29T06:28:53.940Z,76.6529
2023-04-29T06:30:01.965Z,76.5979
2023-04-29T06:31:10.256Z,76.5522
2023-04-29T06:32:18.072Z,76.4966
2023-04-29T06:33:26.127Z,76.5047
2023-04-29T06:34:34.124Z,76.4996
2023-04-29T06:35:42.215Z,76.5374
2023-04-29T06:36:50.320Z,76.6038
2023-04-29T06:37:58.245Z,76.6019
2023-04-29T06:39:06.273Z,76.6189
2023-04-29T06:40:14.319Z,76.6670
2023-04-29T06:41:22.502Z,76.6819
2023-04-29T06:42:30.546Z,76.6562
2023-04-29T06:43:38.561Z,76.6524
2023-04-29T06:44:46.649Z,76.6590
2023-04-29T06:45:54.708Z,76.6758
2023-04-29T06:47:02.925Z,76.6949
2023-04-29T06:48:10.863Z,76.7066
2023-04-29T06:49:18.811Z,76.6845
2023-04-29T06:50:27.036Z,76.6390
2023-04-29T06:51:34.980Z,76.6038
2023-04-29T06:52:42.898Z,76.5945
2023-04-29T06:53:50.956Z,76.6029
2023-04-29T06:54:58.989Z,76.6007
2023-04-29T06:56:07.159Z,76.5759
2023-04-29T06:57:15.253Z,76.5059
2023-04-29T06:58:23.268Z,76.3906
2023-04-29T06:59:31.362Z,76.3598
2023-04-29T07:00:39.429Z,76.3398
2023-04-29T07:01:49.624Z,76.2665
2023-04-29T07:03:00.504Z,76.2662
2023-04-29T07:04:08.404Z,76.2604
2023-04-29T07:05:16.545Z,76.2414
2023-04-29T07:06:24.364Z,76.2887
2023-04-29T07:07:32.422Z,76.3471
2023-04-29T07:08:40.512Z,76.3473
2023-04-29T07:09:48.604Z,76.3499
2023-04-29T07:10:56.772Z,76.3770
2023-04-29T07:12:04.865Z,76.3427
2023-04-29T07:13:12.805Z,76.3094
2023-04-29T07:14:20.856Z,76.3361
2023-04-29T07:15:28.931Z,76.3823
2023-04-29T07:16:37.043Z,76.4153
2023-04-29T07:17:45.052Z,76.4693
2023-04-29T07:18:53.054Z,76.4709
2023-04-29T07:20:01.230Z,76.4392
2023-04-29T07:21:09.019Z,76.4237
2023-04-29T07:22:17.133Z,76.3827
2023-04-29T07:23:25.132Z,76.3207
2023-04-29T07:24:33.360Z,76.2754
2023-04-29T07:25:41.468Z,76.2389
2023-04-29T07:26:49.422Z,76.2013
2023-04-29T07:27:57.677Z,76.1802
2023-04-29T07:29:05.534Z,76.1399
2023-04-29T07:30:13.567Z,76.1165
2023-04-29T07:31:21.703Z,76.0541
2023-04-29T07:32:29.662Z,76.0404
2023-04-29T07:33:37.739Z,76.1202
2023-04-29T07:34:45.840Z,76.2191
2023-04-29T07:35:53.691Z,76.2887
2023-04-29T07:37:01.744Z,76.3570
2023-04-29T07:38:09.813Z,76.4229
2023-04-29T07:39:18.029Z,76.3875
2023-04-29T07:40:26.313Z,76.1857
2023-04-29T07:41:34.159Z,75.9870
2023-04-29T07:42:42.244Z,75.9060
2023-04-29T07:43:50.378Z,75.7862
2023-04-29T07:44:58.363Z,75.7300
2023-04-29T07:46:06.380Z,75.7609
2023-04-29T07:47:14.330Z,75.7172
2023-04-29T07:48:22.430Z,75.6085
2023-04-29T07:49:30.460Z,75.6043
2023-04-29T07:50:38.432Z,75.6011
2023-04-29T07:51:46.480Z,75.5123
2023-04-29T07:52:54.525Z,75.4135
2023-04-29T07:54:02.712Z,75.2741
2023-04-29T07:55:10.742Z,75.2625
2023-04-29T07:56:18.820Z,75.3319
2023-04-29T07:57:26.834Z,75.3470
2023-04-29T07:58:34.943Z,75.3618
2023-04-29T07:59:43.246Z,75.2796
2023-04-29T08:00:50.951Z,75.1613
2023-04-29T08:01:59.087Z,75.1024
2023-04-29T08:03:07.186Z,75.0542
2023-04-29T08:04:15.329Z,75.0073
2023-04-29T08:05:23.486Z,74.9134
2023-04-29T08:06:31.161Z,74.7972
2023-04-29T08:07:39.234Z,74.7580
2023-04-29T08:08:47.383Z,74.7269
2023-04-29T08:09:55.593Z,74.4852
2023-04-29T08:11:03.507Z,74.0166
2023-04-29T08:12:11.583Z,73.7972
2023-04-29T08:13:19.627Z,73.7778
2023-04-29T08:14:27.663Z,73.6175
2023-04-29T08:15:35.800Z,73.1211
2023-04-29T08:16:43.988Z,72.5716
2023-04-29T08:17:51.895Z,72.1618
2023-04-29T08:18:59.970Z,72.1584
2023-04-29T08:20:07.823Z,72.2144
2023-04-29T08:21:15.874Z,72.3887
2023-04-29T08:22:23.910Z,72.6190
2023-04-29T08:23:32.112Z,72.7490
2023-04-29T08:24:40.178Z,72.4637
2023-04-29T08:25:48.227Z,72.1575
2023-04-29T08:26:56.291Z,72.0678
2023-04-29T08:28:04.501Z,72.3358
2023-04-29T08:29:12.325Z,72.6686
2023-04-29T08:30:20.461Z,72.9596
2023-04-29T08:31:28.497Z,73.3417
2023-04-29T08:32:36.667Z,73.8707
2023-04-29T08:33:44.550Z,74.2260
2023-04-29T08:34:52.839Z,74.4298
2023-04-29T08:36:00.603Z,74.7401
2023-04-29T08:37:08.632Z,75.1159
2023-04-29T08:38:16.870Z,75.2893
2023-04-29T08:39:24.845Z,75.5473
2023-04-29T08:40:32.900Z,75.6753
2023-04-29T08:41:40.953Z,75.6771
2023-04-29T08:42:49.154Z,75.8352
2023-04-29T08:43:57.171Z,76.1053
2023-04-29T08:45:05.072Z,76.3066
2023-04-29T08:46:13.159Z,76.5022
2023-04-29T08:47:21.321Z,76.6213
2023-04-29T08:48:29.315Z,76.7576
2023-04-29T08:49:37.169Z,76.8157
2023-04-29T08:50:45.249Z,76.8058
2023-04-29T08:51:53.269Z,76.6886
2023-04-29T08:53:01.547Z,76.5614
2023-04-29T08:54:09.482Z,76.4875
2023-04-29T08:55:17.491Z,76.4028
2023-04-29T08:56:27.862Z,76.3715
2023-04-29T08:57:38.528Z,76.3138
2023-04-29T08:58:46.680Z,76.2260
2023-04-29T08:59:54.594Z,76.1322
2023-04-29T09:01:02.656Z,76.1055
2023-04-29T09:02:10.720Z,76.0826
2023-04-29T09:03:21.075Z,76.0630
2023-04-29T09:04:31.605Z,76.0599
2023-04-29T09:05:39.621Z,76.0001
2023-04-29T09:06:47.916Z,75.8699
2023-04-29T09:07:55.874Z,75.6721
2023-04-29T09:09:03.902Z,75.5085
2023-04-29T09:10:11.971Z,75.4029
2023-04-29T09:11:19.977Z,75.2330
2023-04-29T09:12:28.158Z,75.0833
2023-04-29T09:13:36.213Z,74.9216
2023-04-29T09:14:44.179Z,74.7425
2023-04-29T09:15:52.225Z,74.6499
2023-04-29T09:17:00.116Z,74.6018
2023-04-29T09:18:08.233Z,74.6020
2023-04-29T09:19:16.268Z,74.5737
2023-04-29T09:20:24.388Z,74.5115
2023-04-29T09:21:32.642Z,74.4387
2023-04-29T09:22:40.911Z,74.3424
2023-04-29T09:23:48.556Z,74.1621
2023-04-29T09:24:56.659Z,73.9536
2023-04-29T09:26:04.621Z,73.7076
2023-04-29T09:27:12.736Z,73.4435
2023-04-29T09:28:20.859Z,73.2346
2023-04-29T09:29:28.800Z,73.0649
2023-04-29T09:30:36.980Z,72.9929
2023-04-29T09:31:44.908Z,72.9624
2023-04-29T09:32:52.984Z,72.9671
2023-04-29T09:34:00.949Z,73.0916
2023-04-29T09:35:09.266Z,73.3228
2023-04-29T09:36:17.119Z,73.4779
2023-04-29T09:37:25.232Z,73.6030
2023-04-29T09:38:33.527Z,73.6920
2023-04-29T09:39:41.426Z,73.7148
2023-04-29T09:40:58.860Z,73.7002
2023-04-29T09:42:02.284Z,73.6628
2023-04-29T09:43:10.315Z,73.7311
2023-04-29T09:44:18.435Z,73.7368
2023-04-29T09:45:26.325Z,73.7255
2023-04-29T09:46:34.605Z,73.8307
2023-04-29T09:47:42.518Z,73.9497
2023-04-29T09:48:50.579Z,74.0128
2023-04-29T09:49:58.651Z,74.0413
2023-04-29T09:51:06.659Z,74.0927
2023-04-29T09:52:14.734Z,74.1064
2023-04-29T09:53:22.806Z,74.0885
2023-04-29T09:54:30.964Z,74.0364
2023-04-29T09:55:38.895Z,73.9523
2023-04-29T09:56:46.956Z,73.8007
2023-04-29T09:57:54.980Z,73.6079
2023-04-29T09:59:03.080Z,73.4205
2023-04-29T10:00:11.062Z,73.2024
2023-04-29T10:01:19.101Z,72.9986
2023-04-29T10:02:27.176Z,72.8203
2023-04-29T10:03:35.468Z,72.6572
2023-04-29T10:04:43.390Z,72.5719
2023-04-29T10:05:51.386Z,72.5051
2023-04-29T10:06:59.463Z,72.4555
2023-04-29T10:08:07.480Z,72.4068
2023-04-29T10:09:15.608Z,72.2652
2023-04-29T10:10:23.752Z,72.0303
2023-04-29T10:11:31.653Z,71.5075
2023-04-29T10:12:39.804Z,70.6139
2023-04-29T10:13:47.761Z,69.3264
2023-04-29T10:14:55.890Z,67.9392
2023-04-29T10:16:04.653Z,66.6517
2023-04-29T10:17:16.995Z,65.3035
2023-04-29T10:18:24.871Z,64.1369
2023-04-29T10:19:33.211Z,63.0557
2023-04-29T10:20:41.052Z,61.9074
2023-04-29T10:21:49.908Z,60.8237
2023-04-29T10:22:57.071Z,60.0824
2023-04-29T10:24:05.244Z,59.7340
2023-04-29T10:25:13.185Z,59.3106
2023-04-29T10:26:21.262Z,59.2193
2023-04-29T10:27:29.336Z,59.2714
2023-04-29T10:28:37.269Z,59.3605
2023-04-29T10:29:45.368Z,59.1782
2023-04-29T10:30:53.355Z,59.0592
2023-04-29T10:32:01.561Z,58.9918
2023-04-29T10:33:09.643Z,59.0083
2023-04-29T10:34:17.618Z,59.1596
2023-04-29T10:35:26.038Z,59.9911
2023-04-29T10:36:33.737Z,61.2628
2023-04-29T10:37:41.785Z,62.4662
2023-04-29T10:38:49.890Z,63.5477
2023-04-29T10:39:57.963Z,64.3397
2023-04-29T10:41:05.982Z,64.1509
2023-04-29T10:42:14.056Z,63.1581
2023-04-29T10:43:21.981Z,62.4154
2023-04-29T10:44:30.061Z,61.3882
2023-04-29T10:45:38.068Z,60.5063
2023-04-29T10:46:46.225Z,59.9162
2023-04-29T10:47:54.365Z,60.7348
2023-04-29T10:49:02.488Z,62.0067
2023-04-29T10:50:10.413Z,63.2245
2023-04-29T10:51:18.501Z,64.3227
2023-04-29T10:52:26.579Z,65.3277
2023-04-29T10:53:34.733Z,66.2695
2023-04-29T10:54:44.114Z,67.2666
2023-04-29T10:55:55.606Z,67.9742
2023-04-29T10:57:03.554Z,68.0279
2023-04-29T10:58:11.635Z,68.2079
2023-04-29T10:59:19.649Z,68.3985
2023-04-29T11:00:27.743Z,68.9192
2023-04-29T11:01:36.065Z,69.5950
2023-04-29T11:02:43.997Z,70.0155
2023-04-29T11:03:52.347Z,70.0271
2023-04-29T11:05:00.292Z,70.4587
2023-04-29T11:06:08.131Z,70.9604
2023-04-29T11:07:16.228Z,71.1980
2023-04-29T11:08:24.309Z,71.1875
2023-04-29T11:09:32.243Z,71.3938
2023-04-29T11:10:40.379Z,71.8214
2023-04-29T11:11:48.378Z,72.4008
2023-04-29T11:12:56.297Z,73.0383
2023-04-29T11:14:04.363Z,73.3573
2023-04-29T11:15:12.459Z,73.4846
2023-04-29T11:16:20.611Z,73.6511
2023-04-29T11:17:28.735Z,73.8081
2023-04-29T11:18:36.644Z,73.9320
2023-04-29T11:19:44.720Z,73.7971
2023-04-29T11:20:52.822Z,73.3921
2023-04-29T11:22:00.857Z,73.1345
2023-04-29T11:23:08.889Z,72.9479
2023-04-29T11:24:16.945Z,72.7069
2023-04-29T11:25:24.934Z,72.7324
2023-04-29T11:26:33.084Z,72.7356
2023-04-29T11:27:40.989Z,72.5724
2023-04-29T11:28:49.008Z,72.3153
2023-04-29T11:29:57.073Z,72.0368
2023-04-29T11:31:05.322Z,71.8381
2023-04-29T11:32:13.480Z,71.6557
2023-04-29T11:33:21.421Z,71.4740
2023-04-29T11:34:29.353Z,71.3560
2023-04-29T11:35:37.433Z,71.1799
2023-04-29T11:36:47.504Z,71.0796
2023-04-29T11:37:58.519Z,70.9450
2023-04-29T11:39:06.428Z,70.6979
2023-04-29T11:40:14.512Z,70.5130
2023-04-29T11:41:22.461Z,70.3757
2023-04-29T11:42:30.498Z,70.1609
2023-04-29T11:43:38.611Z,69.8113
2023-04-29T11:44:46.792Z,69.4267
2023-04-29T11:45:54.787Z,69.2850
2023-04-29T11:47:02.794Z,69.1986
2023-04-29T11:48:10.906Z,69.0831
2023-04-29T11:49:18.972Z,68.9258
2023-04-29T11:50:26.924Z,68.6964
2023-04-29T11:51:34.972Z,68.3587
2023-04-29T11:52:43.076Z,67.7067
2023-04-29T11:53:51.111Z,66.6323
2023-04-29T11:54:59.181Z,65.2576
2023-04-29T11:56:07.105Z,63.8444
2023-04-29T11:57:15.162Z,62.4808
2023-04-29T11:58:23.229Z,60.8988
2023-04-29T11:59:31.331Z,59.1422
2023-04-29T12:00:39.554Z,57.0911
2023-04-29T12:01:47.514Z,55.4166
2023-04-29T12:02:55.780Z,54.1090
2023-04-29T12:04:03.685Z,52.7503
2023-04-29T12:05:11.800Z,51.4751
2023-04-29T12:06:19.714Z,50.3220
2023-04-29T12:07:27.812Z,49.3065
2023-04-29T12:08:35.885Z,48.6610
2023-04-29T12:09:44.022Z,48.1641
2023-04-29T12:10:51.837Z,47.7602
2023-04-29T12:11:59.933Z,47.2864
2023-04-29T12:13:09.618Z,46.9302
2023-04-29T12:14:20.992Z,46.6073
2023-04-29T12:15:28.994Z,47.7620
2023-04-29T12:16:37.151Z,50.3017
2023-04-29T12:17:45.362Z,52.7464
2023-04-29T12:18:53.154Z,55.0319
2023-04-29T12:20:01.245Z,56.9428
2023-04-29T12:21:09.316Z,58.6539
2023-04-29T12:22:17.390Z,60.2989
2023-04-29T12:23:25.442Z,61.1090
2023-04-29T12:24:33.344Z,62.0114
2023-04-29T12:25:41.403Z,62.7959
2023-04-29T12:26:49.468Z,63.4908
2023-04-29T12:27:57.633Z,64.1423
2023-04-29T12:29:05.703Z,64.6770
2023-04-29T12:30:13.621Z,65.2463
2023-04-29T12:31:21.799Z,65.7566
2023-04-29T12:32:29.815Z,65.8613
2023-04-29T12:33:37.909Z,65.1227
2023-04-29T12:34:46.117Z,62.8663
2023-04-29T12:35:53.965Z,61.2870
2023-04-29T12:37:02.040Z,61.7213
2023-04-29T12:38:10.096Z,61.5034
2023-04-29T12:39:18.050Z,60.5781
2023-04-29T12:40:27.055Z,59.4087
2023-04-29T12:41:39.152Z,57.4460
2023-04-29T12:42:47.171Z,55.7440
2023-04-29T12:43:55.396Z,54.2126
2023-04-29T12:45:03.404Z,52.2825
2023-04-29T12:46:11.467Z,50.5430
2023-04-29T12:47:19.484Z,48.9568
2023-04-29T12:48:30.410Z,48.2867
2023-04-29T12:49:40.630Z,47.7639
2023-04-29T12:50:48.449Z,47.6208
2023-04-29T12:51:56.414Z,46.7419
2023-04-29T12:53:04.427Z,46.1512
2023-04-29T12:54:12.496Z,46.8532
2023-04-29T12:55:20.566Z,48.2573
2023-04-29T12:56:28.746Z,49.2894
2023-04-29T12:57:36.822Z,49.9815
2023-04-29T12:58:44.877Z,50.5852
2023-04-29T12:59:53.057Z,51.3510
2023-04-29T13:01:00.977Z,52.2229
2023-04-29T13:02:09.088Z,52.9213
2023-04-29T13:03:18.503Z,52.9733
2023-04-29T13:04:30.074Z,51.9234
2023-04-29T13:05:37.904Z,50.8873
2023-04-29T13:06:45.958Z,51.2854
2023-04-29T13:07:54.012Z,51.2090
2023-04-29T13:09:02.800Z,50.3442
2023-04-29T13:10:10.294Z,49.1281
2023-04-29T13:11:18.314Z,47.8342
2023-04-29T13:12:26.355Z,46.7247
2023-04-29T13:13:34.453Z,45.6721
2023-04-29T13:14:42.513Z,44.3980
2023-04-29T13:15:50.518Z,43.6678
2023-04-29T13:16:58.631Z,43.0884
2023-04-29T13:18:06.666Z,42.5635
2023-04-29T13:20:27.536Z,41.4441
2023-04-29T13:21:35.566Z,41.4922
2023-04-29T13:22:43.617Z,41.5555
2023-04-29T13:23:51.805Z,41.1472
2023-04-29T13:25:00.058Z,40.5238
2023-04-29T13:26:07.890Z,40.8210
2023-04-29T13:27:15.946Z,41.0008
2023-04-29T13:28:24.091Z,41.1647
2023-04-29T13:29:32.053Z,41.2532
2023-04-29T13:30:40.128Z,41.1350
2023-04-29T13:31:48.483Z,40.8820
2023-04-29T13:32:59.922Z,40.4863
2023-04-29T13:34:09.660Z,40.3843
2023-04-29T13:35:17.144Z,40.4318
2023-04-29T13:36:25.161Z,40.1298
2023-04-29T13:37:33.412Z,40.6850
2023-04-29T13:38:41.410Z,41.2605
2023-04-29T13:39:56.832Z,41.4769
2023-04-29T13:41:02.528Z,42.0621
2023-04-29T13:42:11.005Z,42.5947
2023-04-29T13:43:31.043Z,43.2760
2023-04-29T13:44:42.521Z,43.8011
2023-04-29T13:45:46.425Z,44.1309